Corapeake, North Carolina
Current Conditions -  °F | °C
As of 11:15 AM on Friday 19 Dec 2014 (Local Time) from KSFQ Reporting Station
Clear Clear  
Wind Chill: 41°   Ceiling: Unl
Heat Index: 41°   Visibility: 10mi
Dew Point: 27°   Wind: 3mph
Humidity: 58%   Direction: 10°N
Pressure: 30.18"   Gusts: NA
Location:  36.53°N, 76.58°W
Report Text: KSFQ 191615Z AUTO 01003KT 10SM CLR 05/M03 A3018 RMK AO2 T00501026
Loading
Personal Weather Stations






























Interactive Weather Map New forecast layout! Learn more

10-Day Weather Forecast

Advertisements
Track Severe Weather on mobile